createdAt,value
2022-10-05T00:28:10.875Z,1023.4
2022-10-05T00:56:58.782Z,1023.54
2022-10-05T01:25:38.091Z,1023.5
2022-10-05T01:54:34.981Z,1023.27
2022-10-05T02:23:07.235Z,1023.12
2022-10-05T03:10:30.862Z,1023.25
2022-10-05T04:42:44.523Z,1022.7
2022-10-05T05:11:31.800Z,1022.94
2022-10-05T05:40:31.226Z,1023.16
2022-10-05T06:09:06.889Z,1023.33
2022-10-05T06:37:39.350Z,1023.57
2022-10-05T07:06:34.750Z,1023.63
2022-10-05T08:03:54.638Z,1023.64
2022-10-05T08:32:33.915Z,1023.6
2022-10-05T09:01:09.564Z,1023.49
2022-10-05T09:29:57.082Z,1023.25
2022-10-05T09:58:26.081Z,1022.94
2022-10-05T10:27:12.826Z,1022.8
2022-10-05T10:55:49.566Z,1022.66
2022-10-05T11:24:17.461Z,1022.49
2022-10-05T11:52:49.239Z,1022.4
2022-10-05T12:21:35.145Z,1022.15
2022-10-05T12:50:15.920Z,1021.74
2022-10-05T13:18:47.886Z,1021.67
2022-10-05T13:47:02.853Z,1021.45
2022-10-05T14:15:43.051Z,1021.4
2022-10-05T14:44:04.608Z,1021.34
2022-10-05T15:12:40.469Z,1021.36
2022-10-05T15:41:26.494Z,1021.46
2022-10-05T16:09:46.559Z,1021.61
2022-10-05T16:38:26.787Z,1021.82
2022-10-05T17:06:58.372Z,1022.03
2022-10-05T17:35:48.410Z,1022.41
2022-10-05T18:04:36.140Z,1022.85
2022-10-05T18:33:13.859Z,1023.13
2022-10-05T19:01:50.885Z,1023.54
2022-10-05T19:30:26.907Z,1023.92
2022-10-05T19:59:06.154Z,1024.35
2022-10-05T20:27:40.956Z,1024.76
2022-10-05T21:25:06.258Z,1025.5
2022-10-05T21:53:57.699Z,1025.58
2022-10-05T22:22:47.740Z,1025.74
2022-10-05T22:51:42.317Z,1025.98
2022-10-05T23:20:34.610Z,1026.23
2022-10-05T23:49:27.870Z,1026.37
